East Lawrenceville, Pennsylvania
Current Conditions -  °F | °C
As of 3:53 AM on Friday 19 Dec 2014 (Local Time) from KELM Reporting Station
Overcast Overcast  
Wind Chill: 21°   Ceiling: 1900
Heat Index: 30°   Visibility: 10mi
Dew Point: 25°   Wind: 10mph
Humidity: 82%   Direction: 300°WNW
Pressure: 30.03"   Gusts: 17mph
Location:  41.971°N, 77.1237°W
Report Text: KELM 190853Z 30009G15KT 10SM OVC019 M01/M04 A3003 RMK AO2 SLP178 T10111039 51009
Loading
Personal Weather Stations






























Interactive Weather Map New forecast layout! Learn more

10-Day Weather Forecast

Advertisements
Track Severe Weather on mobile